Portada
METAR-TAF:

METAR-TAF

Aeroports :

Coffeyville, Kansas, Estats Units d'Amèrica

latitud: 37-05-28N, longitud: 095-33-59W, altitud: 229 m

Observació

L'informe es va fer fa 1 hora i 0 minuts, a les 18:52 UTC
Vent 5 kt del Est
Temperatura 31°C
Humitat 49%
Pressió 1023 hPa
Visibilitat: 16.1 km
Escasses núvols a una alçada de 5500 ft
Cel ennuvolat a una alçada de 8000 ft

METAR: KCFV 201852Z AUTO 10005KT 10SM FEW055 BKN080 31/19 A3022 RMK AO2 SLP225 T03110189

Hora: 14:52 (19:52 UTC)


TAF: manca

Observacions i pronòstics meteorològics de més de 4000 aeroports (METAR i TAF).

Les estacions disponibles són els punts grocs i vermells al mapa.

Posi el ratolí al punt desitjat per veure el nom de l'estació.

Feu clic per veure les observacions i els pronòstics meteorològics.

Per canviar el mapa: feu clic els botons verds amb una creu de color negre per apropar; al botó verd amb un guió per allunyar la imatge; o en les fletxes verdes per a mapes adjacents.


METAR-TAF: